createdAt,value
2022-10-06T00:01:26.778Z,98719.84
2022-10-06T00:03:54.564Z,98719.58
2022-10-06T00:06:22.407Z,98716.64
2022-10-06T00:08:51.405Z,98714.47
2022-10-06T00:11:23.928Z,98710.73
2022-10-06T00:13:55.193Z,98708.57
2022-10-06T00:16:25.146Z,98698.16
2022-10-06T00:19:04.171Z,98702.97
2022-10-06T00:21:42.133Z,98701.11
2022-10-06T00:24:22.387Z,98704.56
2022-10-06T00:26:50.175Z,98696.53
2022-10-06T00:29:18.364Z,98694.92
2022-10-06T00:31:46.004Z,98698.41
2022-10-06T00:34:13.737Z,98694.11
2022-10-06T00:36:41.418Z,98691.71
2022-10-06T00:39:09.267Z,98689.28
2022-10-06T00:41:36.914Z,98687.42
2022-10-06T00:44:04.760Z,98687.41
2022-10-06T00:46:36.822Z,98686.88
2022-10-06T00:49:20.399Z,98683.69
2022-10-06T00:51:54.023Z,98686.89
2022-10-06T00:54:21.717Z,98683.66
2022-10-06T00:56:48.849Z,98681.77
2022-10-06T00:59:17.704Z,98672.97
2022-10-06T01:02:07.167Z,98679.38
2022-10-06T01:04:36.767Z,98684.46
2022-10-06T01:07:04.234Z,98682.33
2022-10-06T01:09:31.582Z,98675.11
2022-10-06T01:12:01.505Z,98676.45
2022-10-06T01:14:29.236Z,98667.10
2022-10-06T01:17:02.801Z,98667.10
2022-10-06T01:19:48.834Z,98667.10
2022-10-06T01:22:20.776Z,98667.64
2022-10-06T01:24:50.200Z,98663.62
2022-10-06T01:27:18.285Z,98654.00
2022-10-06T01:29:45.889Z,98652.94
2022-10-06T01:32:13.253Z,98655.34
2022-10-06T01:34:40.603Z,98658.52
2022-10-06T01:37:08.127Z,98659.59
2022-10-06T01:39:36.207Z,98666.27
2022-10-06T01:42:03.813Z,98662.80
2022-10-06T01:44:31.466Z,98665.21
2022-10-06T01:46:58.749Z,98663.58
2022-10-06T01:49:26.673Z,98668.66
2022-10-06T01:51:54.475Z,98668.11
2022-10-06T01:54:22.023Z,98671.05
2022-10-06T01:56:49.625Z,98673.16
2022-10-06T01:59:17.419Z,98673.72
2022-10-06T02:01:45.211Z,98675.56
2022-10-06T02:04:13.106Z,98683.83
2022-10-06T02:06:41.053Z,98685.67
2022-10-06T02:09:08.854Z,98691.28
2022-10-06T02:11:38.437Z,98688.34
2022-10-06T02:14:07.662Z,98686.73
2022-10-06T02:16:38.748Z,98688.30
2022-10-06T02:19:07.396Z,98688.84
2022-10-06T02:21:36.679Z,98688.05
2022-10-06T02:24:04.805Z,98686.71
2022-10-06T02:26:34.447Z,98680.58
2022-10-06T02:29:02.184Z,98680.58
2022-10-06T02:31:29.740Z,98676.83
2022-10-06T02:33:58.424Z,98679.77
2022-10-06T02:36:26.188Z,98684.02
2022-10-06T02:38:54.262Z,98680.29
2022-10-06T02:41:21.969Z,98679.73
2022-10-06T02:43:49.362Z,98677.34
2022-10-06T02:46:18.053Z,98674.11
2022-10-06T02:48:47.036Z,98672.78
2022-10-06T02:51:16.620Z,98672.78
2022-10-06T02:53:45.617Z,98671.72
2022-10-06T02:56:17.608Z,98671.16
2022-10-06T02:58:47.256Z,98671.14
2022-10-06T03:01:19.179Z,98665.81
2022-10-06T03:03:46.985Z,98662.86
2022-10-06T03:06:23.377Z,98670.30
2022-10-06T03:09:08.793Z,98668.94
2022-10-06T03:11:40.165Z,98677.45
2022-10-06T03:14:08.033Z,98680.94
2022-10-06T03:16:40.380Z,98684.11
2022-10-06T03:19:09.630Z,98682.22
2022-10-06T03:21:39.350Z,98681.13
2022-10-06T03:24:06.713Z,98682.20
2022-10-06T03:26:36.710Z,98682.47
2022-10-06T03:29:07.991Z,98688.04
2022-10-06T03:31:34.399Z,98686.98
2022-10-06T03:34:02.355Z,98682.16
2022-10-06T03:36:32.829Z,98688.53
2022-10-06T03:39:02.041Z,98689.30
2022-10-06T03:41:34.747Z,98691.14
2022-10-06T03:44:02.589Z,98684.75
2022-10-06T03:46:33.028Z,98687.67
2022-10-06T03:49:01.203Z,98684.75
2022-10-06T03:51:32.224Z,98681.52
2022-10-06T03:53:59.835Z,98686.86
2022-10-06T03:56:35.386Z,98683.36
2022-10-06T03:59:05.354Z,98683.87
2022-10-06T04:01:38.024Z,98683.58
2022-10-06T04:04:09.809Z,98684.08
2022-10-06T04:06:38.988Z,98685.38
2022-10-06T04:09:14.724Z,98683.52
2022-10-06T04:11:40.658Z,98680.56
2022-10-06T04:14:10.847Z,98683.22
2022-10-06T04:16:40.592Z,98681.86
2022-10-06T04:19:11.382Z,98677.06
2022-10-06T04:21:42.442Z,98681.03
2022-10-06T04:24:12.450Z,98681.53
2022-10-06T04:26:45.956Z,98682.84
2022-10-06T04:29:13.993Z,98683.08
2022-10-06T04:31:41.957Z,98686.27
2022-10-06T04:34:14.638Z,98688.11
2022-10-06T04:36:43.045Z,98690.50
2022-10-06T04:39:16.050Z,98689.97
2022-10-06T04:41:46.563Z,98691.56
2022-10-06T04:44:15.902Z,98686.77
2022-10-06T04:46:45.167Z,98689.20
2022-10-06T04:49:19.439Z,98691.60
2022-10-06T04:51:43.289Z,98691.63
2022-10-06T04:54:10.834Z,98693.27
2022-10-06T04:56:38.586Z,98693.80
2022-10-06T04:59:06.240Z,98690.63
2022-10-06T05:01:36.480Z,98689.89
2022-10-06T05:04:06.148Z,98688.88
2022-10-06T05:06:37.559Z,98695.06
2022-10-06T05:09:10.753Z,98698.29
2022-10-06T05:11:39.714Z,98701.01
2022-10-06T05:14:09.379Z,98700.02
2022-10-06T05:16:38.684Z,98704.41
2022-10-06T05:19:07.659Z,98705.31
2022-10-06T05:21:36.313Z,98709.19
2022-10-06T05:24:03.957Z,98712.22
2022-10-06T05:26:33.030Z,98712.56
2022-10-06T05:29:01.728Z,98709.47
2022-10-06T05:31:32.189Z,98710.56
2022-10-06T05:34:01.475Z,98716.98
2022-10-06T05:36:30.657Z,98717.23
2022-10-06T05:38:58.489Z,98716.62
2022-10-06T05:41:30.087Z,98717.83
2022-10-06T05:43:59.502Z,98715.21
2022-10-06T05:46:32.200Z,98714.73
2022-10-06T05:49:07.254Z,98716.00
2022-10-06T05:51:35.087Z,98720.44
2022-10-06T05:54:04.262Z,98721.37
2022-10-06T05:56:33.750Z,98726.42
2022-10-06T05:59:03.062Z,98728.50
2022-10-06T06:01:35.678Z,98735.09
2022-10-06T06:04:06.642Z,98739.89
2022-10-06T06:06:41.662Z,98743.52
2022-10-06T06:09:15.759Z,98744.13
2022-10-06T06:11:45.852Z,98748.22
2022-10-06T06:14:17.552Z,98750.93
2022-10-06T06:22:41.233Z,98755.11
2022-10-06T06:25:11.296Z,98755.22
2022-10-06T06:27:40.556Z,98761.25
2022-10-06T06:30:09.178Z,98758.37
2022-10-06T06:32:37.903Z,98755.88
2022-10-06T06:35:06.537Z,98762.38
2022-10-06T06:37:33.797Z,98748.89
2022-10-06T06:40:01.957Z,98751.00
2022-10-06T06:42:30.949Z,98752.94
2022-10-06T06:44:59.769Z,98749.67
2022-10-06T06:47:34.480Z,98754.46
2022-10-06T06:50:02.462Z,98745.71
2022-10-06T06:52:31.859Z,98749.58
2022-10-06T06:54:59.706Z,98743.21
2022-10-06T06:57:27.664Z,98742.03
2022-10-06T07:00:00.560Z,98737.86
2022-10-06T07:02:28.986Z,98738.55
2022-10-06T07:04:56.509Z,98744.24
2022-10-06T07:07:23.989Z,98739.02
2022-10-06T07:09:51.657Z,98743.66
2022-10-06T07:12:20.725Z,98740.09
2022-10-06T07:15:07.817Z,98741.13
2022-10-06T07:17:55.148Z,98741.35
2022-10-06T07:20:41.146Z,98744.45
2022-10-06T07:23:33.357Z,98739.48
2022-10-06T07:26:01.034Z,98739.28
2022-10-06T07:28:30.178Z,98735.37
2022-10-06T07:30:59.923Z,98737.77
2022-10-06T07:33:28.662Z,98730.44
2022-10-06T07:35:55.996Z,98734.81
2022-10-06T07:38:25.375Z,98735.45
2022-10-06T07:41:17.902Z,98741.05
2022-10-06T07:43:26.794Z,98739.52
2022-10-06T07:45:55.641Z,98740.91
2022-10-06T07:48:24.845Z,98742.11
2022-10-06T07:50:53.995Z,98740.74
2022-10-06T07:53:29.061Z,98736.77
2022-10-06T07:56:19.072Z,98739.14
2022-10-06T07:58:48.812Z,98730.97
2022-10-06T08:01:18.406Z,98732.36
2022-10-06T08:03:47.866Z,98732.48
2022-10-06T08:06:16.627Z,98724.33
2022-10-06T08:08:49.022Z,98726.97
2022-10-06T08:11:14.981Z,98724.64
2022-10-06T08:13:44.124Z,98724.64
2022-10-06T08:16:17.775Z,98716.59
2022-10-06T08:18:50.355Z,98719.89
2022-10-06T08:21:19.669Z,98713.73
2022-10-06T08:23:47.903Z,98711.63
2022-10-06T08:26:16.586Z,98709.39
2022-10-06T08:28:45.986Z,98719.91
2022-10-06T08:31:15.176Z,98718.48
2022-10-06T08:33:44.967Z,98716.30
2022-10-06T08:36:17.275Z,98715.16
2022-10-06T08:38:47.007Z,98722.06
2022-10-06T08:41:23.199Z,98722.41
2022-10-06T08:44:09.121Z,98717.89
2022-10-06T08:46:39.268Z,98719.78
2022-10-06T08:49:10.053Z,98711.12
2022-10-06T08:51:50.026Z,98713.52
2022-10-06T08:54:38.917Z,98712.16
2022-10-06T08:57:21.953Z,98704.46
2022-10-06T08:59:51.910Z,98704.95
2022-10-06T09:02:22.882Z,98701.52
2022-10-06T09:04:50.628Z,98701.79
2022-10-06T09:07:27.526Z,98704.67
2022-10-06T09:10:00.959Z,98701.32
2022-10-06T09:12:37.370Z,98698.70
2022-10-06T09:15:18.629Z,98698.34
2022-10-06T09:17:49.638Z,98699.48
2022-10-06T09:20:38.428Z,98698.55
2022-10-06T09:23:09.219Z,98697.17
2022-10-06T09:25:37.527Z,98682.67
2022-10-06T09:28:08.349Z,98686.70
2022-10-06T09:30:36.976Z,98683.39
2022-10-06T09:33:05.675Z,98682.73
2022-10-06T09:35:34.946Z,98686.02
2022-10-06T09:38:09.135Z,98686.38
2022-10-06T09:40:37.152Z,98683.13
2022-10-06T09:43:08.127Z,98679.36
2022-10-06T09:45:35.464Z,98675.85
2022-10-06T09:48:26.189Z,98675.41
2022-10-06T09:51:08.743Z,98679.78
2022-10-06T09:53:38.162Z,98673.73
2022-10-06T09:56:19.279Z,98671.16
2022-10-06T09:58:55.883Z,98672.93
2022-10-06T10:01:26.135Z,98674.09
2022-10-06T10:06:33.980Z,98671.36
2022-10-06T10:09:23.226Z,98663.71
2022-10-06T10:12:20.438Z,98656.75
2022-10-06T10:14:48.049Z,98659.93
2022-10-06T10:17:19.382Z,98657.13
2022-10-06T10:19:50.961Z,98659.41
2022-10-06T10:22:24.034Z,98657.70
2022-10-06T10:24:55.001Z,98650.45
2022-10-06T10:27:25.978Z,98649.08
2022-10-06T10:30:06.147Z,98647.14
2022-10-06T10:32:55.470Z,98643.09
2022-10-06T10:35:28.694Z,98633.52
2022-10-06T10:38:02.425Z,98630.28
2022-10-06T10:40:42.465Z,98632.83
2022-10-06T10:43:21.037Z,98627.88
2022-10-06T10:46:07.284Z,98629.61
2022-10-06T10:48:38.392Z,98625.08
2022-10-06T10:51:27.272Z,98626.19
2022-10-06T10:54:10.222Z,98627.19
2022-10-06T10:56:37.587Z,98627.42
2022-10-06T10:59:11.973Z,98623.19
2022-10-06T11:01:55.132Z,98619.88
2022-10-06T11:04:22.372Z,98621.24
2022-10-06T11:07:08.222Z,98619.30
2022-10-06T11:09:54.759Z,98615.58
2022-10-06T11:12:34.049Z,98611.69
2022-10-06T11:15:05.031Z,98606.58
2022-10-06T11:17:42.897Z,98602.27
2022-10-06T11:20:28.993Z,98599.67
2022-10-06T11:23:33.218Z,98596.02
2022-10-06T11:26:24.371Z,98599.33
2022-10-06T11:29:01.760Z,98592.20
2022-10-06T11:31:38.792Z,98592.20
2022-10-06T11:34:06.477Z,98600.63
2022-10-06T11:36:56.982Z,98588.69
2022-10-06T11:39:41.367Z,98591.56
2022-10-06T11:42:27.716Z,98591.36
2022-10-06T11:45:09.413Z,98585.18
2022-10-06T11:48:10.364Z,98587.70
2022-10-06T11:50:42.126Z,98588.76
2022-10-06T11:53:29.473Z,98578.69
2022-10-06T11:56:16.928Z,98577.26
2022-10-06T11:58:57.163Z,98573.73
2022-10-06T12:01:34.002Z,98581.71
2022-10-06T12:04:10.452Z,98575.83
2022-10-06T12:06:47.818Z,98571.16
2022-10-06T12:09:28.097Z,98572.66
2022-10-06T12:11:58.020Z,98575.17
2022-10-06T12:17:19.496Z,98567.24
2022-10-06T12:20:13.759Z,98569.34
2022-10-06T12:22:50.773Z,98561.16
2022-10-06T12:25:27.479Z,98563.78
2022-10-06T12:28:16.776Z,98567.22
2022-10-06T12:31:02.676Z,98570.66
2022-10-06T12:33:37.437Z,98569.30
2022-10-06T12:36:07.446Z,98570.64
2022-10-06T12:38:43.556Z,98569.56
2022-10-06T12:41:14.293Z,98570.40
2022-10-06T12:43:54.915Z,98575.16
2022-10-06T12:46:26.021Z,98576.07
2022-10-06T12:49:13.794Z,98570.48
2022-10-06T12:51:43.229Z,98573.13
2022-10-06T12:54:34.448Z,98575.33
2022-10-06T12:57:05.205Z,98578.25
2022-10-06T12:59:34.626Z,98573.74
2022-10-06T13:02:20.205Z,98573.72
2022-10-06T13:04:57.443Z,98575.00
2022-10-06T13:07:28.294Z,98565.52
2022-10-06T13:10:17.273Z,98573.41
2022-10-06T13:12:46.773Z,98569.05
2022-10-06T13:15:27.926Z,98565.16
2022-10-06T13:18:15.705Z,98558.48
2022-10-06T13:20:51.110Z,98564.88
2022-10-06T13:23:24.603Z,98563.52
2022-10-06T13:26:09.735Z,98561.92
2022-10-06T13:28:46.083Z,98558.48
2022-10-06T13:31:31.020Z,98556.77
2022-10-06T13:34:04.284Z,98555.72
2022-10-06T13:36:33.993Z,98558.08
2022-10-06T13:39:03.773Z,98553.69
2022-10-06T13:41:37.459Z,98554.85
2022-10-06T13:44:14.150Z,98552.44
2022-10-06T13:46:44.433Z,98551.41
2022-10-06T13:49:22.957Z,98557.86
2022-10-06T13:51:52.338Z,98562.33
2022-10-06T13:54:30.622Z,98558.63
2022-10-06T13:56:58.087Z,98560.11
2022-10-06T13:59:36.760Z,98558.05
2022-10-06T14:02:22.795Z,98555.42
2022-10-06T14:05:29.679Z,98563.48
2022-10-06T14:08:03.043Z,98560.87
2022-10-06T14:10:33.948Z,98560.98
2022-10-06T14:13:01.758Z,98563.14
2022-10-06T14:15:32.755Z,98560.56
2022-10-06T14:18:02.186Z,98566.24
2022-10-06T14:20:37.561Z,98571.16
2022-10-06T14:23:40.213Z,98564.25
2022-10-06T14:26:08.256Z,98560.06
2022-10-06T14:28:35.457Z,98559.94
2022-10-06T14:31:03.616Z,98557.95
2022-10-06T14:33:31.114Z,98556.78
2022-10-06T14:35:58.367Z,98558.61
2022-10-06T14:38:25.585Z,98566.45
2022-10-06T14:40:53.099Z,98566.13
2022-10-06T14:43:20.335Z,98562.48
2022-10-06T14:45:47.658Z,98561.59
2022-10-06T14:48:14.752Z,98565.61
2022-10-06T14:50:46.180Z,98562.64
2022-10-06T14:53:15.887Z,98560.16
2022-10-06T14:55:44.256Z,98560.73
2022-10-06T14:58:11.940Z,98557.11
2022-10-06T15:00:41.395Z,98550.88
2022-10-06T15:03:08.948Z,98552.02
2022-10-06T15:05:38.021Z,98549.86
2022-10-06T15:08:11.215Z,98553.72
2022-10-06T15:10:38.634Z,98551.91
2022-10-06T15:13:08.710Z,98549.25
2022-10-06T15:15:37.542Z,98550.38
2022-10-06T15:18:05.236Z,98554.88
2022-10-06T15:20:32.325Z,98554.20
2022-10-06T15:22:59.641Z,98563.00
2022-10-06T15:25:44.932Z,98562.31
2022-10-06T15:28:31.400Z,98563.39
2022-10-06T15:30:58.661Z,98564.62
2022-10-06T15:33:29.352Z,98570.00
2022-10-06T15:36:17.327Z,98570.97
2022-10-06T15:38:45.121Z,98571.02
2022-10-06T15:41:12.936Z,98575.83
2022-10-06T15:43:55.429Z,98583.86
2022-10-06T15:46:28.750Z,98587.00
2022-10-06T15:48:59.773Z,98588.52
2022-10-06T15:51:36.611Z,98587.31
2022-10-06T15:54:06.757Z,98584.20
2022-10-06T15:56:34.319Z,98589.94
2022-10-06T15:59:01.884Z,98591.58
2022-10-06T16:01:39.494Z,98595.55
2022-10-06T16:04:36.848Z,98592.31
2022-10-06T16:07:06.381Z,98597.62
2022-10-06T16:09:39.310Z,98596.58
2022-10-06T16:12:07.335Z,98593.21
2022-10-06T16:14:35.041Z,98597.63
2022-10-06T16:17:03.743Z,98601.47
2022-10-06T16:19:31.933Z,98605.08
2022-10-06T16:22:00.450Z,98608.11
2022-10-06T16:24:27.991Z,98610.85
2022-10-06T16:26:57.135Z,98607.86
2022-10-06T16:29:24.531Z,98615.38
2022-10-06T16:31:51.788Z,98617.72
2022-10-06T16:34:19.099Z,98620.84
2022-10-06T16:36:46.493Z,98617.78
2022-10-06T16:39:15.536Z,98625.76
2022-10-06T16:41:43.359Z,98632.14
2022-10-06T16:44:10.860Z,98630.73
2022-10-06T16:46:38.356Z,98642.80
2022-10-06T16:49:09.058Z,98640.60
2022-10-06T16:51:41.468Z,98645.62
2022-10-06T16:54:11.298Z,98643.63
2022-10-06T16:56:48.219Z,98648.68
2022-10-06T16:59:20.354Z,98655.37
2022-10-06T17:01:48.844Z,98653.70
2022-10-06T17:04:21.552Z,98657.88
2022-10-06T17:06:52.393Z,98662.64
2022-10-06T17:09:21.518Z,98664.19
2022-10-06T17:11:52.102Z,98661.95
2022-10-06T17:14:20.818Z,98667.19
2022-10-06T17:16:50.281Z,98667.89
2022-10-06T17:19:18.910Z,98676.35
2022-10-06T17:21:49.637Z,98676.47
2022-10-06T17:24:18.247Z,98679.27
2022-10-06T17:26:48.859Z,98681.23
2022-10-06T17:29:22.888Z,98690.24
2022-10-06T17:31:53.116Z,98676.91
2022-10-06T17:34:23.549Z,98681.84
2022-10-06T17:36:51.787Z,98681.91
2022-10-06T17:39:22.001Z,98680.36
2022-10-06T17:41:51.315Z,98685.25
2022-10-06T17:44:23.873Z,98678.86
2022-10-06T17:46:53.369Z,98683.97
2022-10-06T17:49:23.238Z,98681.04
2022-10-06T17:51:51.526Z,98677.83
2022-10-06T17:54:20.570Z,98688.89
2022-10-06T17:56:49.795Z,98689.72
2022-10-06T17:59:19.538Z,98691.13
2022-10-06T18:01:47.116Z,98694.41
2022-10-06T18:04:19.634Z,98691.74
2022-10-06T18:06:54.365Z,98690.48
2022-10-06T18:09:20.674Z,98694.83
2022-10-06T18:11:50.309Z,98694.09
2022-10-06T18:14:19.227Z,98704.08
2022-10-06T18:16:58.578Z,98709.24
2022-10-06T18:19:29.207Z,98713.09
2022-10-06T18:21:59.545Z,98718.79
2022-10-06T18:24:29.750Z,98713.74
2022-10-06T18:26:59.222Z,98716.45
2022-10-06T18:29:32.288Z,98712.20
2022-10-06T18:32:26.956Z,98712.83
2022-10-06T18:36:58.008Z,98714.80
2022-10-06T18:39:25.822Z,98720.50
2022-10-06T18:41:54.626Z,98720.05
2022-10-06T18:44:40.113Z,98716.89
2022-10-06T18:47:25.525Z,98716.93
2022-10-06T18:49:53.033Z,98724.52
2022-10-06T18:52:21.171Z,98724.59
2022-10-06T18:54:48.593Z,98724.61
2022-10-06T18:57:16.395Z,98730.52
2022-10-06T18:59:44.213Z,98726.52
2022-10-06T19:02:11.671Z,98726.29
2022-10-06T19:04:39.550Z,98725.27
2022-10-06T19:07:07.038Z,98732.24
2022-10-06T19:09:34.695Z,98729.08
2022-10-06T19:12:02.144Z,98728.84
2022-10-06T19:14:33.329Z,98730.75
2022-10-06T19:17:08.485Z,98737.53
2022-10-06T19:19:35.810Z,98738.11
2022-10-06T19:22:04.426Z,98736.83
2022-10-06T19:24:37.577Z,98739.00
2022-10-06T19:27:09.606Z,98737.97
2022-10-06T19:29:42.821Z,98740.16
2022-10-06T19:32:10.429Z,98749.32
2022-10-06T19:34:37.949Z,98744.80
2022-10-06T19:37:09.860Z,98749.66
2022-10-06T19:39:41.451Z,98754.78
2022-10-06T19:42:32.131Z,98750.02
2022-10-06T19:44:59.761Z,98756.74
2022-10-06T19:47:28.806Z,98755.16
2022-10-06T19:50:00.837Z,98757.05
2022-10-06T19:52:26.775Z,98752.24
2022-10-06T19:54:54.206Z,98755.22
2022-10-06T19:57:21.750Z,98752.28
2022-10-06T19:59:50.152Z,98754.97
2022-10-06T20:02:19.695Z,98756.31
2022-10-06T20:04:47.183Z,98756.57
2022-10-06T20:07:14.401Z,98759.55
2022-10-06T20:09:41.959Z,98759.27
2022-10-06T20:12:09.110Z,98762.78
2022-10-06T20:14:36.318Z,98765.72
2022-10-06T20:17:03.456Z,98772.17
2022-10-06T20:19:31.153Z,98772.47
2022-10-06T20:21:58.609Z,98770.33
2022-10-06T20:24:26.013Z,98765.20
2022-10-06T20:26:53.860Z,98766.83
2022-10-06T20:29:23.313Z,98768.47
2022-10-06T20:31:53.241Z,98768.48
2022-10-06T20:34:22.876Z,98766.09
2022-10-06T20:36:55.708Z,98768.52
2022-10-06T20:39:40.046Z,98765.30
2022-10-06T20:42:13.669Z,98774.15
2022-10-06T20:44:37.563Z,98780.89
2022-10-06T20:47:04.701Z,98785.72
2022-10-06T20:49:32.252Z,98791.66
2022-10-06T20:52:01.339Z,98795.94
2022-10-06T20:54:33.856Z,98797.56
2022-10-06T20:57:02.880Z,98787.93
2022-10-06T20:59:31.291Z,98801.08
2022-10-06T21:01:59.445Z,98799.48
2022-10-06T21:04:27.122Z,98797.64
2022-10-06T21:06:54.273Z,98804.05
2022-10-06T21:09:23.639Z,98810.78
2022-10-06T21:11:52.128Z,98808.10
2022-10-06T21:14:19.388Z,98806.51
2022-10-06T21:16:48.266Z,98800.34
2022-10-06T21:19:17.383Z,98808.93
2022-10-06T21:21:51.260Z,98815.09
2022-10-06T21:24:18.582Z,98818.31
2022-10-06T21:26:45.956Z,98816.17
2022-10-06T21:29:15.354Z,98826.88
2022-10-06T21:31:44.474Z,98830.90
2022-10-06T21:34:13.707Z,98831.98
2022-10-06T21:36:42.740Z,98831.98
2022-10-06T21:39:11.165Z,98831.21
2022-10-06T21:41:39.417Z,98833.60
2022-10-06T21:44:09.643Z,98831.75
2022-10-06T21:46:41.090Z,98828.52
2022-10-06T21:49:13.728Z,98824.80
2022-10-06T21:51:42.009Z,98827.72
2022-10-06T21:54:11.829Z,98821.85
2022-10-06T21:56:39.347Z,98820.51
2022-10-06T21:59:07.242Z,98821.84
2022-10-06T22:01:37.545Z,98821.31
2022-10-06T22:04:05.149Z,98817.58
2022-10-06T22:06:33.974Z,98822.64
2022-10-06T22:09:01.607Z,98828.83
2022-10-06T22:11:31.283Z,98835.80
2022-10-06T22:14:00.441Z,98832.02
2022-10-06T22:16:29.926Z,98824.02
2022-10-06T22:18:57.809Z,98828.28
2022-10-06T22:21:27.792Z,98826.42
2022-10-06T22:23:59.916Z,98830.44
2022-10-06T22:26:28.942Z,98825.08
2022-10-06T22:29:00.122Z,98821.60
2022-10-06T22:31:28.006Z,98817.34
2022-10-06T22:33:57.674Z,98822.16
2022-10-06T22:36:26.310Z,98815.72
2022-10-06T22:38:54.170Z,98815.45
2022-10-06T22:41:21.757Z,98821.61
2022-10-06T22:43:49.029Z,98815.17
2022-10-06T22:46:16.175Z,98814.11
2022-10-06T22:48:43.595Z,98811.72
2022-10-06T22:51:10.748Z,98818.92
2022-10-06T22:53:38.113Z,98824.27
2022-10-06T22:56:05.383Z,98828.84
2022-10-06T22:58:32.633Z,98825.08
2022-10-06T23:01:13.617Z,98824.56
2022-10-06T23:03:40.946Z,98816.79
2022-10-06T23:06:10.571Z,98811.16
2022-10-06T23:08:38.268Z,98810.36
2022-10-06T23:11:10.491Z,98809.56
2022-10-06T23:13:37.843Z,98821.07
2022-10-06T23:16:08.343Z,98823.47
2022-10-06T23:18:37.864Z,98819.45
2022-10-06T23:21:07.747Z,98822.13
2022-10-06T23:23:34.993Z,98821.34
2022-10-06T23:26:05.863Z,98821.88
2022-10-06T23:28:33.697Z,98822.68
2022-10-06T23:31:01.061Z,98824.28
2022-10-06T23:33:31.912Z,98816.24
2022-10-06T23:36:03.093Z,98812.23
2022-10-06T23:38:30.457Z,98806.34
2022-10-06T23:40:57.778Z,98807.68
2022-10-06T23:43:25.021Z,98807.39
2022-10-06T23:45:52.388Z,98804.17
2022-10-06T23:48:19.659Z,98804.72
2022-10-06T23:51:01.673Z,98806.86
2022-10-06T23:53:30.146Z,98808.20
2022-10-06T23:55:57.275Z,98811.93
2022-10-06T23:58:24.731Z,98810.85
